< < Back
Terminal Aerodrome Forecast


Current Version              Previous Versions:   1  2  3  4  5  6  7  8  9  

Terminal Aerodrome Forecast

427
FTUS42 KILM 311411 AAA
TAFFLO
TAF AMD
KFLO 311411Z 3114/0112 02011KT P6SM VCSH SCT020 BKN100
      TEMPO 3114/3117 BKN020
     FM010200 VRB03KT P6SM SCT050 OVC100
     FM010800 01004KT 4SM BR BKN003=



Latest METAR

657
SAUS70 KWBC 312100 RRF
MTRFLO
METAR KFLO 312053Z AUTO 05009KT 10SM FEW042 31/19 A2988 RMK AO2 SLP116
T03060194 56012


USA.gov is the U.S. government's official web portal to all federal, state and local government web resources and services.